Time;durP1;ratioP1;P1;durP2;ratioP2;P2;SDS_P1;SDS_P2;PMS_P1;PMS_P2;Temp;Humidity;BMP_temperature;BMP_pressure;BME280_temperature;BME280_humidity;BME280_pressure;Samples;Min_cycle;Max_cycle;Signal;HPM_P1;HPM_P2
2022/03/07 00:00:45;;;;;;;6.51;5.94;;;;;;;-0.58;55.80;101169.88;464366;113;922624;-67
2022/03/07 00:01:49;;;;;;;7.24;6.58;;;;;;;-0.55;55.85;101175.00;463823;113;930624;-69
2022/03/07 00:02:52;;;;;;;6.41;5.79;;;;;;;-0.55;55.69;101175.81;462172;113;922635;-69
2022/03/07 00:03:56;;;;;;;7.04;6.44;;;;;;;-0.54;55.65;101165.95;465315;113;922632;-70
2022/03/07 00:05:00;;;;;;;6.77;6.17;;;;;;;-0.54;55.72;101163.28;460647;113;930569;-69
2022/03/07 00:06:05;;;;;;;6.92;6.32;;;;;;;-0.52;55.68;101161.33;462955;113;930508;-70
2022/03/07 00:07:08;;;;;;;6.86;6.13;;;;;;;-0.52;55.63;101170.22;460413;113;922483;-70
2022/03/07 00:08:11;;;;;;;7.26;6.59;;;;;;;-0.51;55.65;101163.89;460778;113;922949;-70
2022/03/07 00:09:17;;;;;;;7.12;6.51;;;;;;;-0.51;55.65;101163.89;456419;113;930559;-70
2022/03/07 00:10:20;;;;;;;7.22;6.62;;;;;;;-0.49;55.47;101161.06;463317;113;922545;-68
2022/03/07 00:11:24;;;;;;;6.62;5.81;;;;;;;-0.48;55.45;101165.44;458930;113;922466;-68
2022/03/07 00:12:27;;;;;;;6.32;5.76;;;;;;;-0.48;55.47;101158.26;461323;113;930578;-69
2022/03/07 00:13:30;;;;;;;7.22;6.47;;;;;;;-0.43;55.59;101165.90;462233;113;922647;-70
2022/03/07 00:14:36;;;;;;;6.80;6.21;;;;;;;-0.40;55.55;101159.45;462324;113;922553;-70
2022/03/07 00:15:39;;;;;;;6.70;6.10;;;;;;;-0.37;55.49;101157.34;461782;113;923344;-71
2022/03/07 00:16:42;;;;;;;6.54;5.84;;;;;;;-0.34;55.37;101158.93;465042;113;923034;-71
2022/03/07 00:17:46;;;;;;;7.27;5.99;;;;;;;-0.32;55.36;101156.95;461650;113;922626;-69
2022/03/07 00:18:49;;;;;;;6.43;5.93;;;;;;;-0.30;55.26;101152.32;464243;113;930511;-70
2022/03/07 00:19:53;;;;;;;6.72;6.16;;;;;;;-0.29;55.14;101154.88;463571;113;922560;-69
2022/03/07 00:20:56;;;;;;;6.91;5.97;;;;;;;-0.28;55.17;101150.38;465027;113;922621;-69
2022/03/07 00:22:00;;;;;;;6.82;6.25;;;;;;;-0.27;55.08;101149.36;461838;113;928865;-70
2022/03/07 00:23:03;;;;;;;7.12;6.53;;;;;;;-0.26;55.11;101151.06;462138;113;930504;-70
2022/03/07 00:24:07;;;;;;;7.24;6.55;;;;;;;-0.26;55.09;101154.59;464041;113;922638;-71
2022/03/07 00:25:11;;;;;;;6.85;6.24;;;;;;;-0.24;55.01;101154.48;463754;113;922629;-70
2022/03/07 00:26:14;;;;;;;7.17;6.53;;;;;;;-0.24;54.98;101151.80;464054;113;923169;-70
2022/03/07 00:27:17;;;;;;;6.88;6.28;;;;;;;-0.24;54.96;101151.80;462109;113;930626;-71
2022/03/07 00:28:21;;;;;;;7.48;6.70;;;;;;;-0.25;54.89;101152.77;459729;113;923035;-70
2022/03/07 00:29:24;;;;;;;7.24;6.54;;;;;;;-0.25;54.88;101150.09;461337;113;922620;-70
2022/03/07 00:30:28;;;;;;;7.22;6.57;;;;;;;-0.25;54.81;101152.77;461829;113;922939;-71
2022/03/07 00:31:31;;;;;;;7.37;6.67;;;;;;;-0.25;54.87;101150.09;462737;113;930471;-70
2022/03/07 00:32:36;;;;;;;6.25;5.74;;;;;;;-0.26;54.93;101148.39;461760;113;930577;-69
2022/03/07 00:33:42;;;;;;;7.03;6.09;;;;;;;-0.26;55.01;101149.24;464017;113;930556;-69
2022/03/07 00:34:45;;;;;;;6.03;5.45;;;;;;;-0.23;54.95;101145.47;464472;113;922630;-69
2022/03/07 00:35:49;;;;;;;6.75;6.15;;;;;;;-0.21;54.79;101143.48;462989;113;922814;-70
2022/03/07 00:36:52;;;;;;;8.81;6.82;;;;;;;-0.20;54.80;101143.36;453931;115;923328;-70
2022/03/07 00:37:56;;;;;;;6.33;5.66;;;;;;;-0.18;54.83;101143.23;454923;113;922790;-70
2022/03/07 00:38:59;;;;;;;6.79;6.22;;;;;;;-0.16;54.86;101138.57;462529;113;922721;-70
2022/03/07 00:40:05;;;;;;;7.42;6.83;;;;;;;-0.16;54.75;101131.38;461460;112;922554;-69
2022/03/07 00:41:09;;;;;;;6.66;6.06;;;;;;;-0.14;54.79;101128.58;462551;113;922559;-69
2022/03/07 00:42:12;;;;;;;6.85;6.25;;;;;;;-0.12;54.80;101127.48;464420;113;923884;-69
2022/03/07 00:43:16;;;;;;;6.41;5.81;;;;;;;-0.10;54.67;101122.81;460882;113;923038;-70
2022/03/07 00:44:19;;;;;;;8.33;7.57;;;;;;;-0.10;54.60;101128.17;463149;113;922892;-70
2022/03/07 00:45:23;;;;;;;7.22;6.53;;;;;;;-0.08;54.67;101125.37;465723;113;922732;-69
2022/03/07 00:46:26;;;;;;;8.22;7.01;;;;;;;-0.07;54.64;101127.08;463750;113;930643;-70
2022/03/07 00:47:30;;;;;;;6.67;6.09;;;;;;;-0.07;54.59;101125.25;462797;113;922694;-69
2022/03/07 00:48:33;;;;;;;8.08;7.28;;;;;;;-0.09;54.54;101132.56;463972;113;922537;-71
2022/03/07 00:49:36;;;;;;;6.99;6.08;;;;;;;-0.09;54.54;101132.56;460375;113;930546;-69
2022/03/07 00:50:42;;;;;;;7.91;7.12;;;;;;;-0.10;54.53;101121.97;463180;113;922877;-69
2022/03/07 00:51:47;;;;;;;7.83;7.13;;;;;;;-0.10;54.64;101114.77;466194;113;930414;-71
2022/03/07 00:52:51;;;;;;;8.67;7.43;;;;;;;-0.08;54.60;101120.86;464188;113;922501;-72
2022/03/07 00:53:54;;;;;;;8.11;7.40;;;;;;;-0.07;54.79;101119.03;455107;115;922864;-70
2022/03/07 00:54:58;;;;;;;7.92;7.11;;;;;;;-0.06;54.82;101116.23;454253;115;930614;-70
2022/03/07 00:56:01;;;;;;;8.02;7.31;;;;;;;-0.04;54.75;101114.24;464802;113;922652;-70
2022/03/07 00:57:07;;;;;;;8.24;7.44;;;;;;;-0.02;54.63;101123.02;463912;113;922638;-71
2022/03/07 00:58:10;;;;;;;8.76;7.47;;;;;;;-0.03;54.63;101117.78;454299;115;922557;-72
2022/03/07 00:59:13;;;;;;;8.68;7.85;;;;;;;-0.03;54.50;101117.78;453068;112;922682;-70
2022/03/07 01:00:19;;;;;;;9.26;8.33;;;;;;;-0.05;54.54;101109.01;463127;113;930473;-71
2022/03/07 01:01:22;;;;;;;8.21;7.42;;;;;;;-0.05;54.56;101112.55;464322;113;922494;-70
2022/03/07 01:02:26;;;;;;;7.42;6.69;;;;;;;-0.05;54.62;101111.69;465269;113;922731;-70
2022/03/07 01:03:29;;;;;;;7.87;7.14;;;;;;;-0.04;54.51;101114.24;463171;113;922563;-70
2022/03/07 01:04:33;;;;;;;8.05;7.15;;;;;;;-0.04;54.43;101105.34;461209;113;930492;-68
2022/03/07 01:05:39;;;;;;;7.74;6.98;;;;;;;-0.06;54.33;101113.55;461916;113;922596;-71
2022/03/07 01:06:42;;;;;;;7.77;7.02;;;;;;;-0.08;54.53;101096.73;462461;113;930610;-71
2022/03/07 01:07:47;;;;;;;8.34;7.64;;;;;;;-0.06;54.62;101100.15;461143;113;922676;-67
2022/03/07 01:08:52;;;;;;;6.95;6.34;;;;;;;-0.06;54.53;101100.15;461410;113;922741;-68
2022/03/07 01:09:55;;;;;;;7.45;6.75;;;;;;;-0.07;54.49;101098.45;462812;113;923968;-69
2022/03/07 01:10:59;;;;;;;6.76;6.16;;;;;;;-0.08;54.53;101103.93;463419;113;922617;-69
2022/03/07 01:12:03;;;;;;;7.29;6.66;;;;;;;-0.09;54.56;101105.76;464965;113;930554;-69
2022/03/07 01:13:07;;;;;;;7.92;7.22;;;;;;;-0.07;54.62;101094.91;464999;113;923371;-70
2022/03/07 01:14:10;;;;;;;7.95;6.76;;;;;;;-0.06;54.61;101099.30;463985;113;922429;-69
2022/03/07 01:15:14;;;;;;;7.39;6.69;;;;;;;-0.02;54.64;101093.53;463441;113;922979;-69
2022/03/07 01:16:19;;;;;;;7.99;7.29;;;;;;;-0.02;54.64;101093.53;462490;113;930437;-70
2022/03/07 01:17:22;;;;;;;7.53;6.84;;;;;;;0.03;54.69;101097.63;456822;114;922609;-70
2022/03/07 01:18:26;;;;;;;7.51;6.84;;;;;;;0.06;54.70;101090.16;455088;113;922615;-70
2022/03/07 01:19:29;;;;;;;7.92;7.14;;;;;;;0.09;54.63;101092.58;464338;113;922601;-72
2022/03/07 01:20:33;;;;;;;7.23;6.58;;;;;;;0.09;54.47;101095.27;462187;113;922551;-69
2022/03/07 01:21:39;;;;;;;7.22;6.62;;;;;;;0.10;54.53;101086.24;462990;113;923080;-70
2022/03/07 01:22:42;;;;;;;6.91;6.31;;;;;;;0.11;54.47;101095.14;465495;113;922455;-70
2022/03/07 01:23:46;;;;;;;7.51;6.75;;;;;;;0.10;54.45;101090.75;462873;113;922334;-68
2022/03/07 01:24:49;;;;;;;7.30;6.61;;;;;;;0.12;54.52;101094.13;464938;113;922417;-69
2022/03/07 01:25:52;;;;;;;7.34;6.64;;;;;;;0.12;54.59;101086.94;462679;113;922449;-69
2022/03/07 01:26:57;;;;;;;7.62;6.33;;;;;;;0.13;54.50;101085.95;465821;113;922789;-70
2022/03/07 01:28:00;;;;;;;7.62;6.92;;;;;;;0.14;54.50;101081.45;461744;113;922500;-71
2022/03/07 01:29:04;;;;;;;7.33;6.60;;;;;;;0.16;54.50;101085.70;464161;112;930524;-70
2022/03/07 01:30:09;;;;;;;6.79;6.19;;;;;;;0.17;54.41;101076.65;462965;113;923338;-69
2022/03/07 01:31:12;;;;;;;6.79;6.13;;;;;;;0.19;54.35;101077.37;463531;113;922568;-70
2022/03/07 01:32:15;;;;;;;7.23;6.56;;;;;;;0.16;54.25;101077.66;464552;113;922556;-70
2022/03/07 01:33:19;;;;;;;6.72;6.12;;;;;;;0.15;54.23;101075.95;463882;113;930560;-69
2022/03/07 01:34:23;;;;;;;7.48;6.79;;;;;;;0.11;54.27;101077.19;468302;113;930541;-69
2022/03/07 01:35:26;;;;;;;7.22;6.54;;;;;;;0.10;54.49;101080.03;460943;113;922923;-71
2022/03/07 01:36:29;;;;;;;6.69;6.13;;;;;;;0.10;54.58;101075.52;465994;112;922612;-69
2022/03/07 01:37:33;;;;;;;7.34;6.68;;;;;;;0.10;54.61;101075.52;462741;113;925680;-69
2022/03/07 01:38:36;;;;;;;7.47;6.78;;;;;;;0.10;54.53;101064.80;462851;113;922380;-71
2022/03/07 01:39:39;;;;;;;6.79;6.26;;;;;;;0.10;54.54;101074.66;465080;113;922615;-68
2022/03/07 01:40:44;;;;;;;6.87;6.27;;;;;;;0.10;54.53;101080.87;466063;112;922655;-70
2022/03/07 01:41:48;;;;;;;7.53;6.78;;;;;;;0.09;54.55;101079.17;462918;113;922362;-67
2022/03/07 01:42:51;;;;;;;6.86;6.28;;;;;;;0.10;54.67;101082.70;463102;112;922466;-70
2022/03/07 01:43:55;;;;;;;7.54;6.33;;;;;;;0.09;54.70;101076.50;462265;113;930525;-70
2022/03/07 01:45:16;;;;;;;7.23;6.54;;;;;;;0.11;54.71;101081.73;464251;113;927324;-68
2022/03/07 01:46:20;;;;;;;7.44;6.73;;;;;;;0.10;54.77;101067.47;463335;113;923283;-69
2022/03/07 01:47:25;;;;;;;7.17;6.47;;;;;;;0.10;54.87;101063.94;463826;113;922375;-69
2022/03/07 01:48:29;;;;;;;7.52;6.76;;;;;;;0.08;54.94;101069.43;462926;113;923245;-71
2022/03/07 01:49:32;;;;;;;7.66;6.96;;;;;;;0.08;54.88;101069.43;465580;113;922616;-70
2022/03/07 01:50:36;;;;;;;7.47;6.64;;;;;;;0.07;54.89;101070.41;463996;113;930321;-70
2022/03/07 01:51:43;;;;;;;6.82;6.21;;;;;;;0.07;54.94;101065.05;463151;113;930424;-70
2022/03/07 01:52:50;;;;;;;6.96;6.33;;;;;;;0.07;54.91;101070.41;455527;115;930839;-70
2022/03/07 01:53:53;;;;;;;7.05;6.39;;;;;;;0.07;54.94;101065.05;454936;113;922609;-69
2022/03/07 01:54:57;;;;;;;6.91;6.28;;;;;;;0.08;55.00;101072.11;460310;113;923005;-69
2022/03/07 01:56:00;;;;;;;7.33;6.63;;;;;;;0.09;55.06;101073.81;455385;115;922426;-68
2022/03/07 01:57:06;;;;;;;7.63;6.93;;;;;;;0.10;55.24;101067.47;454094;114;922668;-70
2022/03/07 01:58:09;;;;;;;6.53;5.93;;;;;;;0.12;55.21;101053.91;464283;113;922719;-71
2022/03/07 01:59:15;;;;;;;7.60;6.96;;;;;;;0.14;55.31;101062.67;464726;113;922929;-70
2022/03/07 02:00:21;;;;;;;6.70;6.12;;;;;;;0.14;55.32;101058.16;465844;112;923330;-70
2022/03/07 02:01:24;;;;;;;7.46;6.73;;;;;;;0.16;55.33;101064.25;463845;113;923339;-71
2022/03/07 02:02:28;;;;;;;7.34;6.20;;;;;;;0.17;55.13;101057.03;463835;113;922649;-68
2022/03/07 02:03:32;;;;;;;7.61;6.91;;;;;;;0.17;55.08;101057.03;462485;112;930732;-69
2022/03/07 02:04:40;;;;;;;7.67;6.97;;;;;;;0.15;55.14;101051.83;464556;112;922912;-69
2022/03/07 02:05:47;;;;;;;7.62;6.92;;;;;;;0.15;55.20;101057.19;462666;113;930585;-70
2022/03/07 02:06:52;;;;;;;7.26;6.49;;;;;;;0.17;55.15;101055.20;462475;113;922592;-69
2022/03/07 02:07:56;;;;;;;7.34;6.74;;;;;;;0.18;55.08;101048.00;462657;112;922982;-70
2022/03/07 02:09:00;;;;;;;7.12;6.43;;;;;;;0.17;55.13;101047.16;462798;113;922460;-69
2022/03/07 02:10:08;;;;;;;8.07;7.24;;;;;;;0.16;55.30;101044.63;462226;113;922634;-70
2022/03/07 02:11:11;;;;;;;8.69;7.93;;;;;;;0.16;55.33;101042.80;465810;112;922628;-69
2022/03/07 02:12:14;;;;;;;8.46;7.76;;;;;;;0.15;55.38;101049.14;461527;113;922963;-69
2022/03/07 02:13:20;;;;;;;8.39;7.51;;;;;;;0.15;55.41;101042.93;463951;113;923246;-70
2022/03/07 02:14:25;;;;;;;8.26;7.49;;;;;;;0.15;55.37;101045.61;464104;113;922649;-70
2022/03/07 02:15:30;;;;;;;8.04;7.23;;;;;;;0.15;55.35;101048.30;461466;113;922447;-69
2022/03/07 02:16:34;;;;;;;7.83;7.13;;;;;;;0.14;55.40;101046.59;461054;113;922724;-69
2022/03/07 02:17:37;;;;;;;7.11;6.45;;;;;;;0.13;55.56;101045.73;464708;113;923466;-69
2022/03/07 02:18:41;;;;;;;8.14;7.37;;;;;;;0.15;55.55;101042.93;463044;112;922977;-70
2022/03/07 02:19:52;;;;;;;8.37;7.54;;;;;;;0.17;55.51;101046.30;461437;113;922601;-69
2022/03/07 02:20:58;;;;;;;7.98;7.23;;;;;;;0.20;55.50;101046.90;462020;113;922821;-69
2022/03/07 02:22:04;;;;;;;7.86;7.15;;;;;;;0.21;55.48;101048.60;453607;115;923402;-70
2022/03/07 02:23:09;;;;;;;11.52;7.63;;;;;;;0.20;55.43;101048.73;453692;113;922722;-69
2022/03/07 02:24:14;;;;;;;7.91;6.99;;;;;;;0.19;55.42;101047.03;463621;113;922925;-70
2022/03/07 02:25:19;;;;;;;7.79;7.11;;;;;;;0.19;55.49;101052.39;460648;113;922578;-69
2022/03/07 02:26:25;;;;;;;8.33;7.63;;;;;;;0.20;55.47;101040.69;454726;115;922540;-69
2022/03/07 02:27:29;;;;;;;7.91;7.22;;;;;;;0.20;55.49;101038.85;447928;115;922480;-69
2022/03/07 02:28:32;;;;;;;8.01;7.31;;;;;;;0.22;55.54;101042.23;456135;113;922579;-69
2022/03/07 02:29:37;;;;;;;7.66;7.02;;;;;;;0.24;55.33;101042.09;461864;113;930510;-70
2022/03/07 02:30:42;;;;;;;8.39;7.69;;;;;;;0.24;55.32;101045.62;462975;113;922595;-70
2022/03/07 02:31:45;;;;;;;8.21;7.27;;;;;;;0.25;55.36;101041.97;464569;113;922553;-68
2022/03/07 02:32:51;;;;;;;7.59;6.86;;;;;;;0.25;55.28;101041.97;455769;115;930614;-69
2022/03/07 02:33:55;;;;;;;7.45;6.78;;;;;;;0.25;55.22;101036.61;453086;115;923060;-69
2022/03/07 02:34:58;;;;;;;7.86;7.18;;;;;;;0.25;55.19;101039.29;454318;114;930641;-69
2022/03/07 02:36:02;;;;;;;7.71;7.01;;;;;;;0.25;55.22;101039.29;461451;113;930966;-69
2022/03/07 02:37:05;;;;;;;7.34;6.64;;;;;;;0.29;55.57;101037.17;455692;115;922843;-69
2022/03/07 02:38:15;;;;;;;7.40;6.70;;;;;;;0.30;55.50;101039.72;455319;113;923101;-69
2022/03/07 02:39:19;;;;;;;7.52;6.87;;;;;;;0.30;55.51;101037.04;461362;113;922705;-69
2022/03/07 02:40:23;;;;;;;6.96;6.36;;;;;;;0.28;55.36;101030.95;462448;113;923019;-70
2022/03/07 02:41:30;;;;;;;7.55;6.95;;;;;;;0.27;55.15;101031.97;462696;113;922491;-70
2022/03/07 02:42:33;;;;;;;7.95;7.22;;;;;;;0.25;55.07;101041.13;464672;112;922611;-70
2022/03/07 02:43:36;;;;;;;7.91;7.22;;;;;;;0.23;55.10;101029.67;461175;112;922775;-69
2022/03/07 02:44:39;;;;;;;8.13;7.36;;;;;;;0.22;55.21;101030.68;460723;113;923352;-69
2022/03/07 02:45:44;;;;;;;7.51;6.81;;;;;;;0.22;55.30;101036.86;466416;113;922662;-69
2022/03/07 02:46:48;;;;;;;7.58;6.88;;;;;;;0.21;55.30;101032.52;463704;112;930989;-69
2022/03/07 02:47:51;;;;;;;6.83;6.17;;;;;;;0.19;55.39;101037.16;461857;113;922626;-70
2022/03/07 02:48:55;;;;;;;7.67;6.97;;;;;;;0.20;55.43;101022.77;467643;113;922610;-69
2022/03/07 02:49:58;;;;;;;7.89;7.19;;;;;;;0.20;55.43;101027.28;464486;113;930554;-70
2022/03/07 02:51:01;;;;;;;7.19;6.62;;;;;;;0.21;55.51;101032.52;451960;115;922675;-70
2022/03/07 02:52:07;;;;;;;6.85;6.28;;;;;;;0.20;55.56;101027.28;453123;114;923220;-70
2022/03/07 02:53:10;;;;;;;6.87;6.26;;;;;;;0.19;55.58;101026.42;461325;113;922543;-70
2022/03/07 02:54:13;;;;;;;7.42;6.82;;;;;;;0.17;55.52;101020.34;463848;113;922948;-70
2022/03/07 02:55:18;;;;;;;7.70;6.98;;;;;;;0.17;55.64;101024.85;464363;113;922579;-69
2022/03/07 02:56:22;;;;;;;8.32;7.54;;;;;;;0.18;55.59;101026.55;466422;113;922678;-70
2022/03/07 02:57:25;;;;;;;7.90;7.20;;;;;;;0.15;55.62;101018.80;464591;113;922522;-70
2022/03/07 02:58:30;;;;;;;7.79;7.03;;;;;;;0.17;55.83;101023.02;465185;113;922811;-69
2022/03/07 02:59:35;;;;;;;6.96;6.41;;;;;;;0.22;55.98;101028.00;462842;113;922973;-69
2022/03/07 03:00:38;;;;;;;6.87;6.23;;;;;;;0.24;56.03;101024.18;462629;113;922651;-69
2022/03/07 03:01:45;;;;;;;7.73;7.03;;;;;;;0.27;55.97;101021.23;462769;113;922638;-68
2022/03/07 03:02:49;;;;;;;8.19;7.39;;;;;;;0.29;55.85;101019.25;463129;113;930613;-69
2022/03/07 03:03:52;;;;;;;7.34;6.74;;;;;;;0.30;55.92;101022.78;465894;113;923393;-69
2022/03/07 03:04:56;;;;;;;7.01;6.39;;;;;;;0.31;56.03;101021.80;462895;112;930584;-69
2022/03/07 03:05:59;;;;;;;7.72;6.97;;;;;;;0.33;56.15;101017.16;465168;113;930516;-68
2022/03/07 03:07:03;;;;;;;7.85;7.08;;;;;;;0.35;56.12;101020.53;465611;113;922853;-69
2022/03/07 03:08:07;;;;;;;7.71;6.97;;;;;;;0.36;56.07;101023.08;460936;113;930612;-70
2022/03/07 03:09:11;;;;;;;8.45;6.91;;;;;;;0.35;55.99;101018.70;465392;113;923121;-69
2022/03/07 03:10:15;;;;;;;8.58;7.70;;;;;;;0.33;56.00;101001.88;466581;113;922589;-69
2022/03/07 03:11:19;;;;;;;7.59;6.69;;;;;;;0.34;56.20;101010.78;464886;112;922519;-70
2022/03/07 03:12:24;;;;;;;7.10;6.47;;;;;;;0.35;56.38;101016.02;460898;113;922504;-69
2022/03/07 03:13:27;;;;;;;7.55;6.87;;;;;;;0.38;56.37;101010.39;463410;113;922503;-68
2022/03/07 03:14:31;;;;;;;7.79;7.09;;;;;;;0.41;56.31;101012.78;462223;112;923046;-69
2022/03/07 03:15:34;;;;;;;7.74;7.04;;;;;;;0.43;56.18;101007.28;463211;113;922756;-68
2022/03/07 03:16:38;;;;;;;8.12;7.41;;;;;;;0.43;56.12;101007.28;462623;113;922955;-68
2022/03/07 03:17:42;;;;;;;6.54;5.92;;;;;;;0.43;56.07;101009.12;464532;113;930621;-69
2022/03/07 03:18:46;;;;;;;7.91;7.10;;;;;;;0.42;56.11;101013.63;462853;113;930558;-69
2022/03/07 03:19:49;;;;;;;6.79;6.19;;;;;;;0.40;56.21;101010.23;462708;113;922621;-69
2022/03/07 03:20:53;;;;;;;7.20;6.50;;;;;;;0.38;56.23;101002.34;463353;113;922423;-69
2022/03/07 03:21:56;;;;;;;8.25;7.45;;;;;;;0.36;56.26;101004.30;462829;113;922753;-69
2022/03/07 03:23:00;;;;;;;7.94;7.24;;;;;;;0.35;56.33;100999.07;461911;113;922609;-69
2022/03/07 03:24:03;;;;;;;7.84;7.15;;;;;;;0.34;56.56;101000.91;465463;113;922528;-68
2022/03/07 03:25:08;;;;;;;7.87;7.20;;;;;;;0.36;56.51;101004.30;464327;113;922548;-69
2022/03/07 03:26:12;;;;;;;8.65;7.42;;;;;;;0.37;56.55;101002.47;464325;113;930481;-69
2022/03/07 03:27:15;;;;;;;7.61;6.91;;;;;;;0.39;56.60;101001.33;464549;113;922649;-68
2022/03/07 03:28:18;;;;;;;7.61;6.91;;;;;;;0.39;56.33;100993.28;462731;113;923241;-68
2022/03/07 03:29:22;;;;;;;7.94;7.21;;;;;;;0.39;56.39;100995.12;463558;113;922888;-70
2022/03/07 03:30:25;;;;;;;7.63;6.99;;;;;;;0.36;56.37;100996.26;464311;112;922651;-68
2022/03/07 03:31:29;;;;;;;7.80;7.15;;;;;;;0.36;56.51;100998.94;460473;113;922472;-68
2022/03/07 03:32:32;;;;;;;8.14;7.37;;;;;;;0.35;56.51;100999.92;465229;113;922577;-69
2022/03/07 03:33:36;;;;;;;8.06;7.37;;;;;;;0.36;56.63;100990.89;462656;112;930793;-68
2022/03/07 03:34:39;;;;;;;8.86;8.04;;;;;;;0.38;56.62;100999.66;465094;113;922647;-67
2022/03/07 03:35:42;;;;;;;8.16;7.35;;;;;;;0.37;56.60;100989.06;463124;113;923580;-67
2022/03/07 03:36:46;;;;;;;7.88;7.21;;;;;;;0.37;56.59;100987.23;465919;113;922712;-69
2022/03/07 03:37:49;;;;;;;8.04;7.34;;;;;;;0.36;56.53;100990.05;460807;113;922910;-68
2022/03/07 03:38:53;;;;;;;6.90;6.33;;;;;;;0.35;56.59;100986.52;461608;113;922666;-70
2022/03/07 03:39:56;;;;;;;7.16;6.49;;;;;;;0.35;56.69;100993.70;464298;113;930702;-69
2022/03/07 03:40:59;;;;;;;6.53;5.96;;;;;;;0.34;56.74;100992.86;461775;113;922909;-69
2022/03/07 03:42:03;;;;;;;7.43;6.74;;;;;;;0.33;56.71;100985.79;461953;113;922925;-68
2022/03/07 03:43:07;;;;;;;7.62;6.92;;;;;;;0.33;56.66;100991.16;462451;113;922979;-68
2022/03/07 03:44:10;;;;;;;7.43;6.79;;;;;;;0.32;56.56;100983.27;462498;113;923806;-68
2022/03/07 03:45:13;;;;;;;8.24;7.45;;;;;;;0.31;56.63;100992.30;462919;113;922953;-70
2022/03/07 03:46:19;;;;;;;7.37;6.67;;;;;;;0.31;56.61;100992.30;462707;113;922995;-70
2022/03/07 03:47:22;;;;;;;7.29;6.66;;;;;;;0.28;56.57;100981.83;462175;113;922500;-69
2022/03/07 03:48:25;;;;;;;6.84;6.24;;;;;;;0.28;56.59;100985.36;464482;113;922628;-71
2022/03/07 03:49:30;;;;;;;8.09;7.39;;;;;;;0.28;56.59;100985.36;460293;113;922927;-69
2022/03/07 03:50:33;;;;;;;7.38;6.71;;;;;;;0.29;56.62;100979.02;462521;112;922827;-69
2022/03/07 03:51:38;;;;;;;7.24;6.54;;;;;;;0.29;56.60;100987.06;464883;113;922931;-68
2022/03/07 03:52:42;;;;;;;7.44;6.80;;;;;;;0.31;56.59;100984.25;467754;113;922912;-68
2022/03/07 03:53:45;;;;;;;7.51;6.81;;;;;;;0.31;56.57;100982.42;462616;113;923311;-69
2022/03/07 03:54:49;;;;;;;6.67;6.04;;;;;;;0.31;56.53;100981.57;464349;113;924103;-69
2022/03/07 03:55:52;;;;;;;7.71;6.67;;;;;;;0.31;56.50;100978.89;464420;112;922997;-69
2022/03/07 03:56:56;;;;;;;7.29;6.62;;;;;;;0.31;56.52;100974.38;463288;112;930542;-69
2022/03/07 03:57:59;;;;;;;6.76;6.18;;;;;;;0.32;56.66;100978.76;462762;113;930650;-70
2022/03/07 03:59:03;;;;;;;7.49;6.79;;;;;;;0.35;56.62;100980.30;464092;113;922545;-70
2022/03/07 04:00:09;;;;;;;7.50;6.91;;;;;;;0.36;56.65;100982.84;463874;112;922911;-70
2022/03/07 04:01:15;;;;;;;6.71;6.17;;;;;;;0.36;56.71;100972.13;462320;113;922897;-67
2022/03/07 04:02:19;;;;;;;7.98;7.28;;;;;;;0.36;56.67;100976.63;466331;113;922564;-70
2022/03/07 04:03:22;;;;;;;6.46;5.88;;;;;;;0.37;56.68;100979.19;463491;113;923598;-69
2022/03/07 04:04:26;;;;;;;7.05;6.29;;;;;;;0.38;56.73;100972.84;463286;113;930530;-69
2022/03/07 04:05:29;;;;;;;7.48;6.77;;;;;;;0.38;56.77;100983.57;462643;113;922984;-68
2022/03/07 04:06:32;;;;;;;7.41;6.72;;;;;;;0.38;56.83;100978.20;466241;112;930479;-69
2022/03/07 04:07:37;;;;;;;7.61;6.78;;;;;;;0.39;56.81;100976.34;463706;112;922672;-69
2022/03/07 04:08:42;;;;;;;7.00;6.30;;;;;;;0.39;56.86;100979.87;461482;113;922664;-69
2022/03/07 04:09:48;;;;;;;6.88;6.28;;;;;;;0.39;56.90;100982.55;461192;113;923069;-69
2022/03/07 04:10:52;;;;;;;8.14;7.38;;;;;;;0.40;56.98;100981.58;464797;113;922478;-69
2022/03/07 04:11:55;;;;;;;7.84;7.14;;;;;;;0.40;56.96;100976.20;464723;113;930438;-69
2022/03/07 04:13:00;;;;;;;6.73;6.16;;;;;;;0.41;56.95;100980.59;466999;113;922584;-70
2022/03/07 04:14:03;;;;;;;9.58;7.31;;;;;;;0.41;56.81;100977.91;461177;113;923293;-69
2022/03/07 04:15:08;;;;;;;7.46;6.86;;;;;;;0.43;56.79;100979.61;459905;113;922653;-68
2022/03/07 04:16:12;;;;;;;6.84;6.24;;;;;;;0.41;56.80;100975.23;466066;113;922654;-67
2022/03/07 04:17:15;;;;;;;7.67;6.59;;;;;;;0.42;56.76;100978.76;464209;113;922674;-70
2022/03/07 04:18:19;;;;;;;7.00;6.24;;;;;;;0.41;56.71;100982.42;462203;113;930573;-70
2022/03/07 04:19:22;;;;;;;6.90;6.29;;;;;;;0.39;56.63;100974.51;465308;113;922893;-69
2022/03/07 04:20:25;;;;;;;6.48;5.89;;;;;;;0.38;56.47;100978.20;463223;113;922519;-68
2022/03/07 04:21:29;;;;;;;7.61;6.86;;;;;;;0.37;56.75;100981.87;461813;113;931077;-70
2022/03/07 04:22:33;;;;;;;6.91;6.31;;;;;;;0.37;56.84;100978.33;466694;113;922634;-69
2022/03/07 04:23:36;;;;;;;6.86;5.89;;;;;;;0.37;56.77;100987.23;467250;113;922958;-69
2022/03/07 04:24:40;;;;;;;7.01;6.38;;;;;;;0.35;56.72;100970.42;463873;113;922438;-69
2022/03/07 04:25:43;;;;;;;7.41;6.81;;;;;;;0.35;56.69;100970.42;461207;113;922516;-68
2022/03/07 04:26:47;;;;;;;7.66;6.97;;;;;;;0.35;56.65;100970.42;461577;112;922875;-69
2022/03/07 04:27:50;;;;;;;7.61;6.93;;;;;;;0.35;56.63;100975.78;464899;112;930549;-68
2022/03/07 04:28:53;;;;;;;7.12;6.43;;;;;;;0.36;56.67;100979.31;460949;113;930630;-70
2022/03/07 04:29:57;;;;;;;7.61;6.71;;;;;;;0.36;56.76;100973.95;463533;113;922536;-70
2022/03/07 04:31:00;;;;;;;7.78;7.08;;;;;;;0.36;56.85;100968.59;461365;112;922694;-69
2022/03/07 04:32:04;;;;;;;8.64;7.78;;;;;;;0.39;56.95;100968.30;461610;113;922575;-69
2022/03/07 04:33:08;;;;;;;8.06;7.36;;;;;;;0.40;57.00;100970.84;463184;113;923751;-69
2022/03/07 04:34:15;;;;;;;7.95;7.26;;;;;;;0.43;56.88;100969.73;464237;113;930497;-69
2022/03/07 04:35:19;;;;;;;7.55;6.95;;;;;;;0.44;56.84;100975.95;465090;113;930639;-68
2022/03/07 04:36:24;;;;;;;7.49;6.86;;;;;;;0.45;56.83;100972.25;462355;113;922860;-70
2022/03/07 04:37:27;;;;;;;8.23;7.35;;;;;;;0.45;56.69;100973.09;461590;113;922698;-70
2022/03/07 04:38:30;;;;;;;8.13;7.40;;;;;;;0.46;56.66;100968.59;460329;112;922618;-68
2022/03/07 04:39:34;;;;;;;7.50;6.86;;;;;;;0.47;56.73;100967.61;460083;113;922636;-69
2022/03/07 04:40:37;;;;;;;8.29;7.54;;;;;;;0.48;56.82;100963.94;462593;112;923015;-70
2022/03/07 04:41:43;;;;;;;7.87;7.11;;;;;;;0.50;56.95;100959.30;462620;113;930524;-70
2022/03/07 04:42:46;;;;;;;7.67;7.03;;;;;;;0.54;57.09;100952.65;462829;113;930672;-70
2022/03/07 04:43:49;;;;;;;7.59;6.75;;;;;;;0.59;57.31;100953.92;463220;113;922583;-69
2022/03/07 04:44:53;;;;;;;9.30;8.03;;;;;;;0.65;57.32;100952.50;462805;113;923033;-68
2022/03/07 04:45:56;;;;;;;10.19;7.99;;;;;;;0.72;57.20;100953.61;460176;112;930499;-68
2022/03/07 04:46:59;;;;;;;7.40;6.69;;;;;;;0.77;57.20;100954.88;465940;113;923006;-69
2022/03/07 04:48:04;;;;;;;7.59;6.89;;;;;;;0.80;57.00;100951.92;464847;113;924160;-70
2022/03/07 04:49:10;;;;;;;8.32;7.55;;;;;;;0.82;56.85;100947.27;462510;112;922785;-70
2022/03/07 04:50:13;;;;;;;5.72;5.21;;;;;;;0.81;56.46;100945.56;465477;113;922762;-70
2022/03/07 04:51:16;;;;;;;6.56;6.06;;;;;;;0.80;56.01;100951.07;462637;113;922517;-69
2022/03/07 04:52:19;;;;;;;5.83;5.27;;;;;;;0.77;55.78;100946.00;462961;112;930526;-67
2022/03/07 04:53:23;;;;;;;6.26;5.73;;;;;;;0.74;55.45;100944.44;462749;112;923322;-69
2022/03/07 04:54:26;;;;;;;6.72;6.14;;;;;;;0.73;55.58;100945.42;462294;113;931046;-71
2022/03/07 04:55:29;;;;;;;7.29;6.12;;;;;;;0.71;55.55;100947.42;463937;112;922684;-68
2022/03/07 04:56:33;;;;;;;7.12;6.53;;;;;;;0.71;55.54;100946.57;464563;112;922699;-70
2022/03/07 04:57:37;;;;;;;9.36;7.17;;;;;;;0.70;55.61;100944.88;465657;113;923164;-66